Time;durP1;ratioP1;P1;durP2;ratioP2;P2;SDS_P1;SDS_P2;PMS_P1;PMS_P2;Temp;Humidity;BMP_temperature;BMP_pressure;BME280_temperature;BME280_humidity;BME280_pressure;Samples;Min_cycle;Max_cycle;Signal;HPM_P1;HPM_P2
2021/01/20 00:02:38;;;;;;;45.85;32.13;;;;;;;;;;5131751;28;20042;-76
2021/01/20 00:05:43;;;;;;;46.90;32.47;;;;;;;;;;5131775;28;20101;-76
2021/01/20 00:08:47;;;;;;;45.55;31.80;;;;;;;;;;5132058;28;20049;-76
2021/01/20 00:11:51;;;;;;;45.28;33.45;;;;;;;;;;5119190;28;20046;-77
2021/01/20 00:14:56;;;;;;;43.05;32.67;;;;;;;;;;5131814;28;20042;-76
2021/01/20 00:18:00;;;;;;;42.80;32.97;;;;;;;;;;5132041;28;20038;-76
2021/01/20 00:21:05;;;;;;;43.03;32.40;;;;;;;;;;5131752;28;20050;-76
2021/01/20 00:24:14;;;;;;;46.95;32.47;;;;;;;;;;5134022;27;20058;-76
2021/01/20 00:27:18;;;;;;;48.35;33.95;;;;;;;;;;5135921;27;20395;-77
2021/01/20 00:30:23;;;;;;;44.33;32.53;;;;;;;;;;5135797;27;20497;-77
2021/01/20 00:33:27;;;;;;;45.67;32.97;;;;;;;;;;5135372;27;20055;-77
2021/01/20 00:36:31;;;;;;;44.60;32.78;;;;;;;;;;5135797;27;20093;-77
2021/01/20 00:39:35;;;;;;;41.88;31.65;;;;;;;;;;5123222;27;20046;-77
2021/01/20 00:42:40;;;;;;;45.80;31.77;;;;;;;;;;5134565;27;20058;-77
2021/01/20 00:45:44;;;;;;;39.05;27.85;;;;;;;;;;5135585;27;20046;-77
2021/01/20 00:48:48;;;;;;;37.88;27.35;;;;;;;;;;5135198;27;20041;-77
2021/01/20 00:51:53;;;;;;;29.48;22.52;;;;;;;;;;5135300;27;20042;-77
2021/01/20 00:54:57;;;;;;;32.05;21.40;;;;;;;;;;5122451;27;20092;-76
2021/01/20 00:58:02;;;;;;;27.95;19.27;;;;;;;;;;5122654;27;20042;-77
2021/01/20 01:01:06;;;;;;;30.30;19.45;;;;;;;;;;5135202;27;20049;-77
2021/01/20 01:04:10;;;;;;;26.33;17.30;;;;;;;;;;5135060;27;20520;-76
2021/01/20 01:07:15;;;;;;;23.17;16.98;;;;;;;;;;5135136;27;20041;-77
2021/01/20 01:10:20;;;;;;;26.70;16.58;;;;;;;;;;5134725;27;20050;-77
2021/01/20 01:13:59;;;;;;;22.55;14.48;;;;;;;;;;5134600;27;20411;-77
2021/01/20 01:17:22;;;;;;;21.38;14.45;;;;;;;;;;5124720;27;20398;-76
2021/01/20 01:20:32;;;;;;;24.10;15.25;;;;;;;;;;5121812;27;20501;-76
2021/01/20 01:23:37;;;;;;;22.60;15.02;;;;;;;;;;5122015;27;20027;-77
2021/01/20 01:26:42;;;;;;;22.95;15.18;;;;;;;;;;5122334;27;20042;-77
2021/01/20 01:29:46;;;;;;;19.73;14.50;;;;;;;;;;5135002;27;20058;-76
2021/01/20 01:33:03;;;;;;;21.52;14.30;;;;;;;;;;5122297;27;20042;-77
2021/01/20 01:36:14;;;;;;;21.05;14.40;;;;;;;;;;5121156;27;20525;-77
2021/01/20 01:39:19;;;;;;;20.27;13.25;;;;;;;;;;5121815;27;20046;-77
2021/01/20 01:42:28;;;;;;;19.63;13.15;;;;;;;;;;5121942;27;20046;-76
2021/01/20 01:45:33;;;;;;;17.92;12.90;;;;;;;;;;5121739;27;20054;-77
2021/01/20 01:48:39;;;;;;;18.17;13.27;;;;;;;;;;5121448;27;20386;-77
2021/01/20 01:51:44;;;;;;;19.02;13.18;;;;;;;;;;5121266;27;20054;-77
2021/01/20 01:55:20;;;;;;;18.27;12.93;;;;;;;;;;5115979;27;20390;-77
2021/01/20 01:58:48;;;;;;;18.25;12.63;;;;;;;;;;5122641;27;20046;-76
2021/01/20 02:01:56;;;;;;;15.77;12.90;;;;;;;;;;5121645;27;20046;-76
2021/01/20 02:05:07;;;;;;;;;;;;;;;;;;5110991;27;20054;-76
2021/01/20 02:08:16;;;;;;;23.05;13.82;;;;;;;;;;5121317;27;19915;-76
2021/01/20 02:11:44;;;;;;;18.05;13.57;;;;;;;;;;5121115;27;20058;-76
2021/01/20 02:14:51;;;;;;;19.60;14.88;;;;;;;;;;5120940;27;20070;-76
2021/01/20 02:18:09;;;;;;;19.65;14.90;;;;;;;;;;5133433;27;20050;-76
2021/01/20 02:21:58;;;;;;;20.67;14.52;;;;;;;;;;5133656;27;20038;-77
2021/01/20 02:25:43;;;;;;;23.55;15.90;;;;;;;;;;5115332;27;20050;-76
2021/01/20 02:29:07;;;;;;;25.30;17.52;;;;;;;;;;5120989;27;20034;-77
2021/01/20 02:32:18;;;;;;;26.20;19.17;;;;;;;;;;5120648;27;20513;-77
2021/01/20 02:35:23;;;;;;;26.83;18.02;;;;;;;;;;5120762;27;20054;-76
2021/01/20 02:38:28;;;;;;;26.33;17.70;;;;;;;;;;5133103;27;20038;-77
2021/01/20 02:41:41;;;;;;;24.35;18.30;;;;;;;;;;5120398;27;20054;-76
2021/01/20 02:45:15;;;;;;;26.08;20.13;;;;;;;;;;5133143;27;20508;-77
2021/01/20 02:48:22;;;;;;;28.85;20.58;;;;;;;;;;5120145;27;20521;-76
2021/01/20 02:51:40;;;;;;;28.98;21.50;;;;;;;;;;5120381;27;20390;-77
2021/01/20 02:55:04;;;;;;;31.45;21.15;;;;;;;;;;5132721;27;20532;-77
2021/01/20 02:58:29;;;;;;;31.13;21.17;;;;;;;;;;5133014;27;20038;-77
2021/01/20 03:02:01;;;;;;;33.03;24.40;;;;;;;;;;5116621;27;20038;-76
2021/01/20 03:05:06;;;;;;;34.78;23.30;;;;;;;;;;5119955;27;20057;-77
2021/01/20 03:08:10;;;;;;;31.20;21.80;;;;;;;;;;5132809;27;20041;-76
2021/01/20 03:11:14;;;;;;;35.53;23.25;;;;;;;;;;5132290;27;20062;-76
2021/01/20 03:14:20;;;;;;;30.33;22.33;;;;;;;;;;5119736;27;20054;-76
2021/01/20 03:17:27;;;;;;;29.50;21.45;;;;;;;;;;5132453;27;20038;-76
2021/01/20 03:20:31;;;;;;;28.23;21.38;;;;;;;;;;5119637;27;20498;-76
2021/01/20 03:23:35;;;;;;;34.63;23.42;;;;;;;;;;5132502;27;20046;-76
2021/01/20 03:26:39;;;;;;;41.10;25.40;;;;;;;;;;5120008;27;20642;-76
2021/01/20 03:29:43;;;;;;;34.13;24.85;;;;;;;;;;5132574;27;20042;-76
2021/01/20 03:32:50;;;;;;;29.13;22.52;;;;;;;;;;5132582;27;20050;-77
2021/01/20 03:35:54;;;;;;;40.25;23.27;;;;;;;;;;5132161;27;20058;-76
2021/01/20 03:38:59;;;;;;;34.05;23.20;;;;;;;;;;5132515;27;20050;-74
2021/01/20 03:42:03;;;;;;;29.67;23.80;;;;;;;;;;5132016;27;20042;-76
2021/01/20 03:45:07;;;;;;;36.22;23.05;;;;;;;;;;5132154;28;20058;-76
2021/01/20 03:48:12;;;;;;;36.92;23.10;;;;;;;;;;5132364;28;20050;-76
2021/01/20 03:51:16;;;;;;;32.63;23.75;;;;;;;;;;5132202;28;20045;-76
2021/01/20 03:54:20;;;;;;;34.45;23.33;;;;;;;;;;5131940;28;20054;-76
2021/01/20 03:57:24;;;;;;;31.75;23.30;;;;;;;;;;5131846;27;20418;-76
2021/01/20 04:00:29;;;;;;;35.05;21.45;;;;;;;;;;5136394;27;20050;-76
2021/01/20 04:03:33;;;;;;;31.75;21.33;;;;;;;;;;5123684;27;20050;-76
2021/01/20 04:07:03;;;;;;;34.67;23.77;;;;;;;;;;5135933;27;20520;-76
2021/01/20 04:10:10;;;;;;;31.63;22.83;;;;;;;;;;5114255;28;20070;-76
2021/01/20 04:13:15;;;;;;;30.35;21.67;;;;;;;;;;5115637;28;20051;-76
2021/01/20 04:16:19;;;;;;;35.75;23.25;;;;;;;;;;5115946;28;20394;-76
2021/01/20 04:19:23;;;;;;;34.63;23.08;;;;;;;;;;5115670;28;20043;-76
2021/01/20 04:22:28;;;;;;;26.85;21.50;;;;;;;;;;5115422;28;20047;-76
2021/01/20 04:25:32;;;;;;;37.47;23.27;;;;;;;;;;5115506;28;20047;-76
2021/01/20 04:28:36;;;;;;;33.28;23.77;;;;;;;;;;5115177;28;20046;-76
2021/01/20 04:31:41;;;;;;;35.00;23.02;;;;;;;;;;5115289;28;20042;-76
2021/01/20 04:34:45;;;;;;;32.95;22.52;;;;;;;;;;5115054;28;20086;-76
2021/01/20 04:37:49;;;;;;;33.03;22.15;;;;;;;;;;5115197;28;20051;-76
2021/01/20 04:40:54;;;;;;;29.52;22.35;;;;;;;;;;5115182;28;20055;-76
2021/01/20 04:43:59;;;;;;;32.33;22.38;;;;;;;;;;5114844;28;20055;-76
2021/01/20 04:47:05;;;;;;;34.28;22.70;;;;;;;;;;5115031;28;20498;-76
2021/01/20 04:50:12;;;;;;;32.08;22.67;;;;;;;;;;5113734;28;20047;-76
2021/01/20 04:53:19;;;;;;;33.50;23.08;;;;;;;;;;5114819;28;20051;-76
2021/01/20 04:56:24;;;;;;;34.47;23.77;;;;;;;;;;5114833;28;20050;-76
2021/01/20 04:59:29;;;;;;;35.28;25.38;;;;;;;;;;5114740;28;20039;-76
2021/01/20 05:02:34;;;;;;;32.38;24.75;;;;;;;;;;5102185;28;20051;-76
2021/01/20 05:05:38;;;;;;;36.63;24.33;;;;;;;;;;5114609;28;20046;-76
2021/01/20 05:08:42;;;;;;;33.13;23.30;;;;;;;;;;5114320;28;20050;-76
2021/01/20 05:11:47;;;;;;;40.33;24.65;;;;;;;;;;5094068;28;20396;-76
2021/01/20 05:14:51;;;;;;;33.30;23.55;;;;;;;;;;5093839;28;20059;-76
2021/01/20 05:18:00;;;;;;;40.17;23.38;;;;;;;;;;5093758;28;20035;-76
2021/01/20 05:21:15;;;;;;;32.45;22.63;;;;;;;;;;5093978;28;20051;-76
2021/01/20 05:24:19;;;;;;;31.00;21.77;;;;;;;;;;5093194;28;20043;-76
2021/01/20 05:27:28;;;;;;;30.67;22.15;;;;;;;;;;5093031;28;20055;-76
2021/01/20 05:30:44;;;;;;;33.15;20.63;;;;;;;;;;5093787;28;20043;-76
2021/01/20 05:33:48;;;;;;;28.60;18.90;;;;;;;;;;5092934;28;20047;-76
2021/01/20 05:37:12;;;;;;;28.17;20.25;;;;;;;;;;5093479;28;20051;-76
2021/01/20 05:40:17;;;;;;;25.50;19.05;;;;;;;;;;5093587;28;20059;-76
2021/01/20 05:43:24;;;;;;;29.50;18.40;;;;;;;;;;5093270;28;20047;-76
2021/01/20 05:46:29;;;;;;;24.27;18.23;;;;;;;;;;5093521;28;20050;-76
2021/01/20 05:49:34;;;;;;;26.90;17.90;;;;;;;;;;5093245;28;20039;-76
2021/01/20 05:52:39;;;;;;;27.35;16.95;;;;;;;;;;5093145;28;20043;-76
2021/01/20 05:55:43;;;;;;;24.98;15.57;;;;;;;;;;5093481;28;20051;-76
2021/01/20 05:58:47;;;;;;;28.67;17.80;;;;;;;;;;5092996;28;20043;-76
2021/01/20 06:01:52;;;;;;;24.90;17.00;;;;;;;;;;5092338;28;20051;-76
2021/01/20 06:04:57;;;;;;;28.20;17.27;;;;;;;;;;5092834;28;20058;-76
2021/01/20 06:08:02;;;;;;;26.98;16.88;;;;;;;;;;5093196;28;20047;-76
2021/01/20 06:11:07;;;;;;;27.73;15.07;;;;;;;;;;5110160;28;20051;-76
2021/01/20 06:14:12;;;;;;;23.27;16.02;;;;;;;;;;5112239;28;20066;-76
2021/01/20 06:17:22;;;;;;;28.35;16.45;;;;;;;;;;5112230;28;20597;-76
2021/01/20 06:20:30;;;;;;;22.05;13.70;;;;;;;;;;5112962;28;20506;-76
2021/01/20 06:23:37;;;;;;;28.20;16.63;;;;;;;;;;5113144;28;20399;-76
2021/01/20 06:27:01;;;;;;;29.65;21.05;;;;;;;;;;5112921;28;20047;-76
2021/01/20 06:30:09;;;;;;;28.25;16.42;;;;;;;;;;5111782;28;20039;-76
2021/01/20 06:33:16;;;;;;;28.35;15.85;;;;;;;;;;5112607;28;20066;-76
2021/01/20 06:36:30;;;;;;;26.48;15.95;;;;;;;;;;5112610;28;20047;-68
2021/01/20 06:39:34;;;;;;;24.20;15.85;;;;;;;;;;5112919;28;20035;-68
2021/01/20 06:42:40;;;;;;;21.73;15.27;;;;;;;;;;5112439;28;20046;-67
2021/01/20 06:45:44;;;;;;;21.33;14.15;;;;;;;;;;5112492;28;20042;-68
2021/01/20 06:48:54;;;;;;;23.13;15.10;;;;;;;;;;5112699;28;20046;-67
2021/01/20 06:52:07;;;;;;;24.35;15.65;;;;;;;;;;5112554;28;20054;-67
2021/01/20 06:55:30;;;;;;;22.67;16.08;;;;;;;;;;5112106;28;20058;-67
2021/01/20 06:58:34;;;;;;;27.20;16.98;;;;;;;;;;5112598;28;20526;-67
2021/01/20 07:01:38;;;;;;;25.10;15.88;;;;;;;;;;5112313;28;20038;-67
2021/01/20 07:04:49;;;;;;;43.72;30.27;;;;;;;;;;5112237;28;20395;-69
2021/01/20 07:07:54;;;;;;;29.63;17.70;;;;;;;;;;5111874;28;20042;-68
2021/01/20 07:11:00;;;;;;;29.42;18.48;;;;;;;;;;5129414;27;20054;-67
2021/01/20 07:14:24;;;;;;;34.45;18.98;;;;;;;;;;5132012;27;20054;-68
2021/01/20 07:17:34;;;;;;;31.23;18.35;;;;;;;;;;5132493;27;20042;-67
2021/01/20 07:20:39;;;;;;;39.97;19.92;;;;;;;;;;5132365;27;20046;-67
2021/01/20 07:23:43;;;;;;;36.13;20.38;;;;;;;;;;5132706;27;20045;-67
2021/01/20 07:26:48;;;;;;;34.15;21.73;;;;;;;;;;5132563;27;20046;-67
2021/01/20 07:29:52;;;;;;;37.53;23.52;;;;;;;;;;5132376;27;20039;-67
2021/01/20 07:32:57;;;;;;;36.63;20.75;;;;;;;;;;5131372;27;20501;-68
2021/01/20 07:36:15;;;;;;;27.38;18.15;;;;;;;;;;5132568;27;20050;-67
2021/01/20 07:39:24;;;;;;;31.33;17.90;;;;;;;;;;5132484;27;20038;-67
2021/01/20 07:42:37;;;;;;;36.97;18.55;;;;;;;;;;5132151;27;20494;-68
2021/01/20 07:45:43;;;;;;;31.52;17.23;;;;;;;;;;5132415;28;20058;-67
2021/01/20 07:48:48;;;;;;;26.63;16.98;;;;;;;;;;5132047;28;20042;-67
2021/01/20 07:52:22;;;;;;;26.67;17.85;;;;;;;;;;5130546;28;20042;-67
2021/01/20 07:55:26;;;;;;;28.92;18.98;;;;;;;;;;5131978;28;20446;-67
2021/01/20 07:58:31;;;;;;;32.95;19.35;;;;;;;;;;5132132;28;20050;-67
2021/01/20 08:01:37;;;;;;;29.35;19.88;;;;;;;;;;5131914;28;20046;-67
2021/01/20 08:04:41;;;;;;;31.58;17.95;;;;;;;;;;5132184;28;20038;-67
2021/01/20 08:07:45;;;;;;;28.45;16.45;;;;;;;;;;5132066;28;20046;-67
2021/01/20 08:10:49;;;;;;;30.20;17.52;;;;;;;;;;5131443;28;20070;-67
2021/01/20 08:13:54;;;;;;;34.50;22.45;;;;;;;;;;5131792;28;20046;-67
2021/01/20 08:16:58;;;;;;;31.50;19.50;;;;;;;;;;5131602;28;20046;-67
2021/01/20 08:20:03;;;;;;;31.65;18.25;;;;;;;;;;5131974;28;20046;-67
2021/01/20 08:23:15;;;;;;;21.20;15.18;;;;;;;;;;5131927;28;20066;-67
2021/01/20 08:26:23;;;;;;;22.95;13.90;;;;;;;;;;5132146;28;20046;-67
2021/01/20 08:29:28;;;;;;;28.15;14.73;;;;;;;;;;5131745;28;20038;-67
2021/01/20 08:32:33;;;;;;;23.00;15.40;;;;;;;;;;5131495;28;20038;-67
2021/01/20 08:35:38;;;;;;;27.17;14.15;;;;;;;;;;5131553;28;20055;-65
2021/01/20 08:38:42;;;;;;;24.02;12.35;;;;;;;;;;5131854;28;20409;-64
2021/01/20 08:42:08;;;;;;;25.65;11.88;;;;;;;;;;5131221;28;20038;-65
2021/01/20 08:45:21;;;;;;;18.40;9.18;;;;;;;;;;5133715;27;20054;-64
2021/01/20 08:48:29;;;;;;;26.70;10.60;;;;;;;;;;5135019;27;20039;-64
2021/01/20 08:51:33;;;;;;;15.00;7.93;;;;;;;;;;5135135;27;20399;-64
2021/01/20 08:54:46;;;;;;;12.02;6.25;;;;;;;;;;5135214;27;20454;-67
2021/01/20 08:58:09;;;;;;;9.93;5.68;;;;;;;;;;5134922;27;20031;-66
2021/01/20 09:01:17;;;;;;;11.55;6.10;;;;;;;;;;5135056;27;20031;-65
2021/01/20 09:04:21;;;;;;;14.95;7.95;;;;;;;;;;5134830;27;20038;-65
2021/01/20 09:07:26;;;;;;;17.67;7.80;;;;;;;;;;5134679;27;20038;-64
2021/01/20 09:10:30;;;;;;;12.18;5.57;;;;;;;;;;5134355;27;20112;-64
2021/01/20 09:13:34;;;;;;;15.50;6.60;;;;;;;;;;5134820;27;20382;-65
2021/01/20 09:16:38;;;;;;;13.00;4.95;;;;;;;;;;5134202;27;20043;-64
2021/01/20 09:19:43;;;;;;;16.52;5.75;;;;;;;;;;5134492;27;20035;-64
2021/01/20 09:22:47;;;;;;;11.43;5.53;;;;;;;;;;5134523;27;20043;-64
2021/01/20 09:25:53;;;;;;;14.55;6.07;;;;;;;;;;5134538;27;20035;-65
2021/01/20 09:28:58;;;;;;;16.70;6.88;;;;;;;;;;5121959;27;20039;-64
2021/01/20 09:32:02;;;;;;;11.43;5.63;;;;;;;;;;5134429;27;20038;-64
2021/01/20 09:35:11;;;;;;;15.05;5.40;;;;;;;;;;5134235;27;20051;-65
2021/01/20 09:38:17;;;;;;;13.85;5.20;;;;;;;;;;5134392;27;20048;-64
2021/01/20 09:41:22;;;;;;;13.18;5.05;;;;;;;;;;5134350;27;20043;-64
2021/01/20 09:44:26;;;;;;;14.25;5.60;;;;;;;;;;5134232;27;20039;-64
2021/01/20 09:47:33;;;;;;;14.32;4.97;;;;;;;;;;5134107;27;20094;-65
2021/01/20 09:50:38;;;;;;;21.02;5.32;;;;;;;;;;5133810;27;20039;-64
2021/01/20 09:53:42;;;;;;;10.40;5.13;;;;;;;;;;5134291;27;20031;-64
2021/01/20 09:56:46;;;;;;;16.73;5.65;;;;;;;;;;5132703;27;20050;-64
2021/01/20 09:59:52;;;;;;;10.07;3.88;;;;;;;;;;5133978;27;20038;-64
2021/01/20 10:03:00;;;;;;;7.30;3.13;;;;;;;;;;5121356;27;20039;-64
2021/01/20 10:06:04;;;;;;;8.98;2.10;;;;;;;;;;5134209;27;20042;-64
2021/01/20 10:09:08;;;;;;;23.88;3.72;;;;;;;;;;5133521;27;20031;-65
2021/01/20 10:12:18;;;;;;;10.02;2.25;;;;;;;;;;5133846;27;20042;-65
2021/01/20 10:15:23;;;;;;;5.97;1.90;;;;;;;;;;5133647;27;20521;-65
2021/01/20 10:18:27;;;;;;;5.40;1.75;;;;;;;;;;5121058;27;20027;-65
2021/01/20 10:21:32;;;;;;;8.35;2.10;;;;;;;;;;5133195;27;20047;-64
2021/01/20 10:24:36;;;;;;;8.80;2.40;;;;;;;;;;5133468;27;20035;-65
2021/01/20 10:27:40;;;;;;;11.48;2.30;;;;;;;;;;5133201;27;20031;-64
2021/01/20 10:30:45;;;;;;;16.58;2.88;;;;;;;;;;5133420;27;20054;-64
2021/01/20 10:33:49;;;;;;;12.80;2.97;;;;;;;;;;5133477;27;20050;-64
2021/01/20 10:36:53;;;;;;;9.40;2.58;;;;;;;;;;5133137;27;20060;-64
2021/01/20 10:39:58;;;;;;;13.00;3.15;;;;;;;;;;5132848;27;20479;-64
2021/01/20 10:43:02;;;;;;;8.02;2.92;;;;;;;;;;5133254;27;20039;-64
2021/01/20 10:46:06;;;;;;;11.07;2.80;;;;;;;;;;5132991;27;20035;-64
2021/01/20 10:49:11;;;;;;;17.10;2.78;;;;;;;;;;5133027;27;20046;-64
2021/01/20 10:52:19;;;;;;;13.18;3.13;;;;;;;;;;5132589;27;20027;-64
2021/01/20 10:55:24;;;;;;;10.38;2.80;;;;;;;;;;5131461;27;20505;-65
2021/01/20 10:58:28;;;;;;;11.52;2.80;;;;;;;;;;5132976;27;20386;-66
2021/01/20 11:01:32;;;;;;;15.38;3.28;;;;;;;;;;5132915;27;20046;-66
2021/01/20 11:04:37;;;;;;;9.68;2.83;;;;;;;;;;5132550;27;20046;-66
2021/01/20 11:07:42;;;;;;;8.55;3.22;;;;;;;;;;5132169;27;20039;-66
2021/01/20 11:10:47;;;;;;;10.60;3.33;;;;;;;;;;5132357;27;20042;-65
2021/01/20 11:13:52;;;;;;;12.77;5.30;;;;;;;;;;5132385;27;20028;-65
2021/01/20 11:16:57;;;;;;;12.10;4.70;;;;;;;;;;5119824;27;20043;-64
2021/01/20 11:20:01;;;;;;;16.95;5.00;;;;;;;;;;5132679;27;20035;-66
2021/01/20 11:23:06;;;;;;;17.38;4.18;;;;;;;;;;5132051;27;20498;-66
2021/01/20 11:26:11;;;;;;;16.20;4.40;;;;;;;;;;5132200;27;20042;-65
2021/01/20 11:29:15;;;;;;;11.38;3.60;;;;;;;;;;5132546;27;20035;-65
2021/01/20 11:32:19;;;;;;;18.83;4.85;;;;;;;;;;5132239;27;20065;-65
2021/01/20 11:35:23;;;;;;;11.00;4.00;;;;;;;;;;5132602;27;20603;-64
2021/01/20 11:38:28;;;;;;;16.33;4.00;;;;;;;;;;5132025;27;20364;-64
2021/01/20 11:41:32;;;;;;;15.38;4.30;;;;;;;;;;5132031;27;20497;-67
2021/01/20 11:44:36;;;;;;;18.98;10.93;;;;;;;;;;5132511;27;20042;-68
2021/01/20 11:47:41;;;;;;;38.58;5.65;;;;;;;;;;5131989;28;20514;-68
2021/01/20 11:50:46;;;;;;;22.42;2.83;;;;;;;;;;5131897;28;20035;-67
2021/01/20 11:53:51;;;;;;;12.75;3.47;;;;;;;;;;5118564;28;20035;-67
2021/01/20 11:56:55;;;;;;;25.90;3.63;;;;;;;;;;5131742;28;20047;-67
2021/01/20 12:00:00;;;;;;;11.30;2.58;;;;;;;;;;5131852;28;20046;-67
2021/01/20 12:03:04;;;;;;;15.32;3.45;;;;;;;;;;5131914;28;20046;-67
2021/01/20 12:06:12;;;;;;;7.05;2.10;;;;;;;;;;5131983;28;20039;-67
2021/01/20 12:09:16;;;;;;;8.93;2.58;;;;;;;;;;5131323;28;20043;-69
2021/01/20 12:12:21;;;;;;;10.32;2.67;;;;;;;;;;5131920;28;20474;-70
2021/01/20 12:15:25;;;;;;;6.63;1.67;;;;;;;;;;5131531;28;20047;-68
2021/01/20 12:18:30;;;;;;;9.35;2.05;;;;;;;;;;5132223;27;20043;-67
2021/01/20 12:21:34;;;;;;;8.52;3.13;;;;;;;;;;5136026;27;20039;-68
2021/01/20 12:24:39;;;;;;;54.05;30.40;;;;;;;;;;5135575;27;20035;-66
2021/01/20 12:27:43;;;;;;;22.27;9.95;;;;;;;;;;5123420;27;20046;-66
2021/01/20 12:30:48;;;;;;;8.80;3.08;;;;;;;;;;5135802;27;20043;-65
2021/01/20 12:33:52;;;;;;;12.55;2.97;;;;;;;;;;5135809;27;20047;-65
2021/01/20 12:36:57;;;;;;;11.65;3.42;;;;;;;;;;5135761;27;20042;-65
2021/01/20 12:40:01;;;;;;;10.13;3.15;;;;;;;;;;5135680;27;20059;-66
2021/01/20 12:43:05;;;;;;;13.63;2.78;;;;;;;;;;5135476;27;20493;-66
2021/01/20 12:46:09;;;;;;;10.05;3.25;;;;;;;;;;5122775;27;20035;-66
2021/01/20 12:49:14;;;;;;;52.15;10.52;;;;;;;;;;5135026;27;20043;-67
2021/01/20 12:52:18;;;;;;;17.70;5.78;;;;;;;;;;5135211;27;20042;-67
2021/01/20 12:55:23;;;;;;;10.15;3.03;;;;;;;;;;5135368;27;20048;-67
2021/01/20 12:58:27;;;;;;;16.75;3.90;;;;;;;;;;5135182;27;20035;-67
2021/01/20 13:01:31;;;;;;;15.80;4.07;;;;;;;;;;5135119;27;20039;-66
2021/01/20 13:04:36;;;;;;;13.43;3.55;;;;;;;;;;5135322;27;20050;-66
2021/01/20 13:07:40;;;;;;;19.45;4.20;;;;;;;;;;5134936;27;20622;-66
2021/01/20 13:10:45;;;;;;;14.60;3.97;;;;;;;;;;5134748;27;20522;-66
2021/01/20 13:13:50;;;;;;;27.95;15.95;;;;;;;;;;5135175;27;20027;-65
2021/01/20 13:16:54;;;;;;;23.95;13.95;;;;;;;;;;5134833;27;20050;-65
2021/01/20 13:19:58;;;;;;;9.85;4.45;;;;;;;;;;5122326;27;20046;-68
2021/01/20 13:23:03;;;;;;;6.45;3.10;;;;;;;;;;5134505;27;20031;-65
2021/01/20 13:26:07;;;;;;;5.70;2.95;;;;;;;;;;5134500;27;20043;-65
2021/01/20 13:29:11;;;;;;;12.18;3.75;;;;;;;;;;5134384;27;20035;-63
2021/01/20 13:32:16;;;;;;;17.42;4.70;;;;;;;;;;5134589;27;20042;-64
2021/01/20 13:35:20;;;;;;;17.17;4.68;;;;;;;;;;5134441;27;20043;-62
2021/01/20 13:38:25;;;;;;;11.52;4.15;;;;;;;;;;5134534;27;20047;-64
2021/01/20 13:41:29;;;;;;;10.80;5.60;;;;;;;;;;5134215;27;20040;-63
2021/01/20 13:44:33;;;;;;;26.05;10.02;;;;;;;;;;5134253;27;20514;-64
2021/01/20 13:47:38;;;;;;;14.18;8.57;;;;;;;;;;5134269;27;20046;-64
2021/01/20 13:50:42;;;;;;;18.13;9.18;;;;;;;;;;5134138;27;20125;-64
2021/01/20 13:53:47;;;;;;;20.83;8.02;;;;;;;;;;5134389;27;20042;-65
2021/01/20 13:56:51;;;;;;;13.68;6.57;;;;;;;;;;5134088;27;20056;-68
2021/01/20 13:59:56;;;;;;;13.80;6.88;;;;;;;;;;5133862;27;20505;-68
2021/01/20 14:03:00;;;;;;;17.27;7.80;;;;;;;;;;5134044;27;20039;-65
2021/01/20 14:06:04;;;;;;;18.77;9.15;;;;;;;;;;5133810;27;20050;-65
2021/01/20 14:09:09;;;;;;;18.88;9.50;;;;;;;;;;5133659;27;20071;-65
2021/01/20 14:12:13;;;;;;;23.50;13.02;;;;;;;;;;5133965;27;20038;-65
2021/01/20 14:15:18;;;;;;;25.17;10.75;;;;;;;;;;5133511;27;20058;-65
2021/01/20 14:18:22;;;;;;;22.55;11.90;;;;;;;;;;5133745;27;20497;-65
2021/01/20 14:21:26;;;;;;;22.05;12.30;;;;;;;;;;5133705;27;20390;-65
2021/01/20 14:24:30;;;;;;;29.52;17.08;;;;;;;;;;5133466;27;20045;-65
2021/01/20 14:27:35;;;;;;;16.45;7.88;;;;;;;;;;5133135;27;20050;-74
2021/01/20 14:30:39;;;;;;;14.55;7.30;;;;;;;;;;5132616;27;20039;-67
2021/01/20 14:33:44;;;;;;;10.38;6.93;;;;;;;;;;5132626;27;20495;-65
2021/01/20 14:36:49;;;;;;;17.60;9.15;;;;;;;;;;5132605;27;20039;-67
2021/01/20 14:39:53;;;;;;;17.02;9.00;;;;;;;;;;5132586;27;20050;-68
2021/01/20 14:42:57;;;;;;;17.17;8.07;;;;;;;;;;5119372;27;20042;-69
2021/01/20 14:46:02;;;;;;;20.85;9.70;;;;;;;;;;5119425;27;20031;-67
2021/01/20 14:49:06;;;;;;;16.05;7.15;;;;;;;;;;5132102;27;20031;-66
2021/01/20 14:52:14;;;;;;;14.32;6.57;;;;;;;;;;5131915;27;20035;-68
2021/01/20 14:55:18;;;;;;;23.52;13.50;;;;;;;;;;5131638;27;20062;-66
2021/01/20 14:58:22;;;;;;;15.40;8.32;;;;;;;;;;5131770;27;20046;-64
2021/01/20 15:01:27;;;;;;;14.32;7.47;;;;;;;;;;5131410;27;20042;-65
2021/01/20 15:04:31;;;;;;;16.98;8.55;;;;;;;;;;5131521;27;20035;-64
2021/01/20 15:07:35;;;;;;;17.35;8.75;;;;;;;;;;5131294;27;20051;-65
2021/01/20 15:10:43;;;;;;;20.52;10.55;;;;;;;;;;5131334;27;20074;-65
2021/01/20 15:13:47;;;;;;;19.85;10.20;;;;;;;;;;5132063;27;20053;-64
2021/01/20 15:16:52;;;;;;;38.50;13.07;;;;;;;;;;5132039;27;20058;-65
2021/01/20 15:19:56;;;;;;;31.42;16.65;;;;;;;;;;5132370;27;20042;-67
2021/01/20 15:23:00;;;;;;;64.68;40.88;;;;;;;;;;5132243;27;20053;-64
2021/01/20 15:26:05;;;;;;;30.80;15.43;;;;;;;;;;5131747;27;20050;-65
2021/01/20 15:29:09;;;;;;;22.27;12.52;;;;;;;;;;5131969;27;20042;-67
2021/01/20 15:32:14;;;;;;;24.08;12.13;;;;;;;;;;5119213;27;20038;-66
2021/01/20 15:35:18;;;;;;;26.52;11.63;;;;;;;;;;5131911;27;20054;-65
2021/01/20 15:38:23;;;;;;;23.08;12.27;;;;;;;;;;5132031;27;20038;-67
2021/01/20 15:41:28;;;;;;;23.73;10.15;;;;;;;;;;5131996;27;20412;-67
2021/01/20 15:44:32;;;;;;;24.58;10.50;;;;;;;;;;5132004;27;20054;-68
2021/01/20 15:47:37;;;;;;;25.33;11.48;;;;;;;;;;5131810;28;20042;-69
2021/01/20 15:50:42;;;;;;;26.13;11.63;;;;;;;;;;5131859;28;20046;-68
2021/01/20 15:53:46;;;;;;;35.22;12.85;;;;;;;;;;5132255;27;20046;-66
2021/01/20 15:56:51;;;;;;;26.85;12.13;;;;;;;;;;5135886;27;20046;-66
2021/01/20 15:59:57;;;;;;;47.28;25.48;;;;;;;;;;5136349;27;20042;-66
2021/01/20 16:03:03;;;;;;;25.92;11.30;;;;;;;;;;5136244;27;20042;-67
2021/01/20 16:06:09;;;;;;;37.25;12.40;;;;;;;;;;5136048;27;20053;-66
2021/01/20 16:09:16;;;;;;;28.00;12.73;;;;;;;;;;5135535;27;20043;-68
2021/01/20 16:12:20;;;;;;;35.20;13.95;;;;;;;;;;5135824;27;20043;-68
2021/01/20 16:15:25;;;;;;;28.52;14.75;;;;;;;;;;5135528;27;20046;-67
2021/01/20 16:18:29;;;;;;;33.67;18.48;;;;;;;;;;5135513;27;20038;-69
2021/01/20 16:21:34;;;;;;;30.55;16.33;;;;;;;;;;5135972;27;20034;-70
2021/01/20 16:24:38;;;;;;;33.95;15.77;;;;;;;;;;5135754;27;20069;-67
2021/01/20 16:27:43;;;;;;;53.35;19.38;;;;;;;;;;5135692;27;20042;-71
2021/01/20 16:30:47;;;;;;;32.40;16.75;;;;;;;;;;5135796;27;20041;-68
2021/01/20 16:33:52;;;;;;;49.00;19.80;;;;;;;;;;5135475;27;20030;-67
2021/01/20 16:36:56;;;;;;;28.23;15.68;;;;;;;;;;5135310;27;20054;-67
2021/01/20 16:40:00;;;;;;;25.65;15.75;;;;;;;;;;5135361;27;20066;-68
2021/01/20 16:43:04;;;;;;;26.98;14.70;;;;;;;;;;5110580;27;20042;-68
2021/01/20 16:46:09;;;;;;;32.85;16.85;;;;;;;;;;5135035;27;20046;-68
2021/01/20 16:49:13;;;;;;;30.25;17.60;;;;;;;;;;5122054;27;20501;-70
2021/01/20 16:52:17;;;;;;;37.63;18.88;;;;;;;;;;5135081;27;20050;-69
2021/01/20 16:55:22;;;;;;;36.90;22.60;;;;;;;;;;5135245;27;20050;-66
2021/01/20 16:58:27;;;;;;;40.28;19.80;;;;;;;;;;5135147;27;20042;-67
2021/01/20 17:01:31;;;;;;;38.25;21.58;;;;;;;;;;5134962;27;20046;-67
2021/01/20 17:04:35;;;;;;;38.90;20.95;;;;;;;;;;5135033;27;20397;-69
2021/01/20 17:07:40;;;;;;;40.33;21.83;;;;;;;;;;5134870;27;20388;-67
2021/01/20 17:10:44;;;;;;;48.85;27.33;;;;;;;;;;5134625;27;20058;-69
2021/01/20 17:13:49;;;;;;;54.17;27.17;;;;;;;;;;5134772;27;20100;-66
2021/01/20 17:16:55;;;;;;;38.50;19.33;;;;;;;;;;5134284;27;20054;-67
2021/01/20 17:19:59;;;;;;;31.33;18.67;;;;;;;;;;5134293;27;20042;-68
2021/01/20 17:23:04;;;;;;;30.45;18.48;;;;;;;;;;5134707;27;20046;-67
2021/01/20 17:26:09;;;;;;;35.45;18.95;;;;;;;;;;5134557;27;20046;-67
2021/01/20 17:29:13;;;;;;;39.17;21.23;;;;;;;;;;5134492;27;20090;-67
2021/01/20 17:32:18;;;;;;;40.92;22.20;;;;;;;;;;5134336;27;20045;-67
2021/01/20 17:35:22;;;;;;;35.55;17.88;;;;;;;;;;5134136;27;20050;-67
2021/01/20 17:38:26;;;;;;;34.63;19.58;;;;;;;;;;5134198;27;20047;-66
2021/01/20 17:41:31;;;;;;;35.60;20.23;;;;;;;;;;5134457;27;20497;-67
2021/01/20 17:44:35;;;;;;;38.72;20.05;;;;;;;;;;5133743;27;20359;-67
2021/01/20 17:47:39;;;;;;;35.35;20.38;;;;;;;;;;5132578;27;20046;-67
2021/01/20 17:50:44;;;;;;;40.47;21.23;;;;;;;;;;5133783;27;20038;-67
2021/01/20 17:53:49;;;;;;;36.88;20.65;;;;;;;;;;5133858;27;20411;-66
2021/01/20 17:56:53;;;;;;;36.60;20.83;;;;;;;;;;5133899;27;20050;-67
2021/01/20 17:59:58;;;;;;;38.78;21.60;;;;;;;;;;5133732;27;20108;-77
2021/01/20 18:03:02;;;;;;;42.53;22.70;;;;;;;;;;5133784;27;20054;-77
2021/01/20 18:06:07;;;;;;;39.45;22.63;;;;;;;;;;5120719;27;20053;-77
2021/01/20 18:09:13;;;;;;;36.05;21.27;;;;;;;;;;5133550;27;20054;-77
2021/01/20 18:12:17;;;;;;;39.13;19.23;;;;;;;;;;5133566;27;20038;-77